Aviation Digital Data Service (ADDS)

Output produced by METARs form (2104 UTC 08 August 2020)
found at http://www.aviationweather.gov/metar/data/
 
KHOU 082047Z 0821/0918 16010KT P6SM VCSH SCT035 SCT050 BKN250 
     FM082300 15010KT P6SM FEW050 SCT250 
     FM090300 VRB04KT P6SM SCT250 
     FM091300 20004KT P6SM SCT025 
     FM091700 19007KT P6SM VCSH SCT040
       
KLBX 081720Z 0818/0918 16007KT P6SM VCSH SCT035 SCT250 
     FM082300 15008KT P6SM FEW050 SCT250 
     FM090100 VRB04KT P6SM SCT250 
     FM091200 VRB03KT P6SM VCSH SCT025 
     FM091600 20007KT P6SM VCSH SCT035